createdAt,value
2018-12-23T00:00:48.439Z,3.40
2018-12-23T00:03:17.009Z,2.93
2018-12-23T00:05:45.439Z,2.33
2018-12-23T00:08:13.912Z,2.50
2018-12-23T00:10:42.364Z,2.33
2018-12-23T00:13:10.792Z,2.23
2018-12-23T00:15:39.221Z,2.73
2018-12-23T00:18:07.716Z,2.43
2018-12-23T00:20:36.219Z,2.80
2018-12-23T00:23:04.675Z,2.30
2018-12-23T00:25:33.130Z,2.00
2018-12-23T00:28:01.843Z,1.87
2018-12-23T00:30:30.298Z,2.60
2018-12-23T00:32:58.724Z,2.20
2018-12-23T00:35:27.155Z,2.73
2018-12-23T00:37:55.561Z,1.90
2018-12-23T00:40:24.173Z,2.10
2018-12-23T00:42:52.649Z,2.17
2018-12-23T00:45:21.076Z,2.40
2018-12-23T00:47:49.569Z,1.93
2018-12-23T00:50:18.010Z,2.40
2018-12-23T00:52:46.455Z,2.10
2018-12-23T00:55:14.787Z,1.83
2018-12-23T00:57:43.242Z,2.00
2018-12-23T01:00:12.297Z,3.10
2018-12-23T01:02:40.725Z,2.10
2018-12-23T01:05:09.316Z,2.30
2018-12-23T01:07:37.771Z,1.97
2018-12-23T01:10:06.332Z,1.70
2018-12-23T01:12:35.120Z,1.87
2018-12-23T01:15:04.368Z,1.80
2018-12-23T01:17:32.850Z,1.50
2018-12-23T01:20:01.276Z,1.70
2018-12-23T01:22:29.700Z,3.10
2018-12-23T01:24:58.134Z,1.90
2018-12-23T01:27:26.592Z,1.60
2018-12-23T01:29:55.047Z,1.70
2018-12-23T01:32:23.577Z,1.50
2018-12-23T01:34:52.003Z,1.97
2018-12-23T01:37:20.538Z,1.60
2018-12-23T01:39:49.321Z,1.80
2018-12-23T01:42:17.785Z,1.77
2018-12-23T01:44:46.218Z,1.70
2018-12-23T01:47:14.844Z,1.50
2018-12-23T01:49:43.314Z,1.50
2018-12-23T01:52:11.705Z,1.53
2018-12-23T01:54:40.352Z,1.60
2018-12-23T01:57:08.788Z,1.47
2018-12-23T01:59:37.252Z,1.50
2018-12-23T02:02:06.474Z,1.77
2018-12-23T02:04:35.652Z,1.60
2018-12-23T02:07:04.200Z,3.03
2018-12-23T02:09:32.620Z,1.60
2018-12-23T02:12:01.738Z,1.70
2018-12-23T02:14:30.190Z,1.50
2018-12-23T02:16:58.626Z,2.23
2018-12-23T02:19:27.371Z,1.67
2018-12-23T02:21:55.706Z,1.50
2018-12-23T02:24:24.138Z,1.80
2018-12-23T02:26:52.729Z,1.70
2018-12-23T02:29:21.136Z,1.60
2018-12-23T02:31:49.573Z,1.70
2018-12-23T02:34:18.341Z,2.43
2018-12-23T02:36:46.772Z,1.80
2018-12-23T02:39:15.578Z,1.50
2018-12-23T02:41:43.999Z,1.60
2018-12-23T02:44:12.453Z,1.73
2018-12-23T02:46:40.953Z,1.70
2018-12-23T02:49:09.718Z,1.53
2018-12-23T02:51:38.240Z,1.80
2018-12-23T02:54:06.649Z,2.17
2018-12-23T02:56:35.404Z,1.80
2018-12-23T02:59:03.839Z,2.00
2018-12-23T03:01:32.893Z,1.60
2018-12-23T03:04:01.447Z,2.30
2018-12-23T03:06:29.890Z,2.03
2018-12-23T03:08:58.291Z,1.67
2018-12-23T03:11:26.703Z,1.97
2018-12-23T03:13:55.128Z,1.73
2018-12-23T03:16:23.546Z,1.50
2018-12-23T03:18:52.050Z,1.80
2018-12-23T03:21:20.734Z,1.87
2018-12-23T03:23:49.199Z,2.23
2018-12-23T03:26:17.639Z,1.60
2018-12-23T03:28:46.077Z,2.00
2018-12-23T03:31:14.857Z,1.97
2018-12-23T03:33:43.746Z,2.27
2018-12-23T03:36:15.227Z,2.20
2018-12-23T03:38:43.000Z,2.20
2018-12-23T03:41:11.676Z,2.30
2018-12-23T03:43:40.682Z,1.83
2018-12-23T03:46:09.834Z,1.60
2018-12-23T03:48:38.369Z,1.80
2018-12-23T03:51:06.851Z,1.83
2018-12-23T03:53:36.143Z,2.00
2018-12-23T03:56:04.614Z,1.70
2018-12-23T03:58:33.047Z,1.93
2018-12-23T04:01:02.124Z,1.97
2018-12-23T04:03:30.933Z,1.80
2018-12-23T04:05:59.355Z,1.73
2018-12-23T04:08:27.813Z,1.80
2018-12-23T04:10:56.254Z,1.70
2018-12-23T04:13:24.774Z,1.50
2018-12-23T04:15:53.197Z,2.10
2018-12-23T04:18:21.643Z,1.70
2018-12-23T04:20:50.071Z,2.10
2018-12-23T04:23:18.525Z,1.73
2018-12-23T04:25:46.922Z,2.00
2018-12-23T04:28:15.384Z,1.80
2018-12-23T04:30:43.820Z,1.93
2018-12-23T04:33:12.242Z,1.83
2018-12-23T04:35:40.765Z,1.80
2018-12-23T04:38:09.171Z,1.67
2018-12-23T04:40:38.181Z,1.83
2018-12-23T04:43:06.629Z,2.00
2018-12-23T04:45:35.056Z,2.00
2018-12-23T04:48:03.483Z,1.80
2018-12-23T04:50:32.145Z,1.77
2018-12-23T04:53:01.570Z,1.73
2018-12-23T04:55:30.012Z,1.83
2018-12-23T04:57:58.525Z,1.70
2018-12-23T05:00:27.232Z,1.70
2018-12-23T05:02:55.992Z,1.80
2018-12-23T05:05:25.025Z,1.70
2018-12-23T05:07:53.469Z,1.93
2018-12-23T05:10:22.254Z,1.70
2018-12-23T05:12:50.696Z,1.57
2018-12-23T05:15:19.755Z,1.67
2018-12-23T05:17:48.197Z,1.73
2018-12-23T05:20:16.629Z,1.73
2018-12-23T05:22:45.916Z,1.77
2018-12-23T05:25:14.346Z,1.70
2018-12-23T05:27:42.741Z,1.60
2018-12-23T05:30:11.196Z,1.60
2018-12-23T05:32:39.597Z,1.60
2018-12-23T05:35:08.053Z,1.70
2018-12-23T05:37:36.475Z,1.60
2018-12-23T05:40:05.416Z,1.53
2018-12-23T05:42:33.857Z,1.70
2018-12-23T05:45:02.660Z,1.50
2018-12-23T05:47:31.082Z,1.70
2018-12-23T05:49:59.615Z,1.50
2018-12-23T05:52:28.061Z,1.67
2018-12-23T05:54:56.467Z,1.63
2018-12-23T05:57:24.907Z,1.70
2018-12-23T05:59:53.410Z,1.70
2018-12-23T06:02:21.827Z,1.67
2018-12-23T06:04:50.158Z,1.63
2018-12-23T06:07:18.761Z,1.67
2018-12-23T06:09:47.546Z,1.90
2018-12-23T06:12:16.587Z,1.70
2018-12-23T06:14:45.007Z,1.60
2018-12-23T06:17:13.441Z,1.50
2018-12-23T06:19:41.839Z,2.23
2018-12-23T06:22:10.257Z,1.83
2018-12-23T06:24:38.757Z,2.07
2018-12-23T06:27:07.593Z,2.43
2018-12-23T06:29:35.994Z,1.73
2018-12-23T06:32:04.735Z,1.53
2018-12-23T06:34:33.155Z,1.67
2018-12-23T06:37:09.774Z,1.83
2018-12-23T06:39:32.125Z,1.60
2018-12-23T06:42:00.550Z,1.63
2018-12-23T06:44:29.016Z,1.93
2018-12-23T06:46:57.487Z,2.40
2018-12-23T06:49:25.931Z,1.70
2018-12-23T06:51:54.355Z,1.87
2018-12-23T06:54:22.786Z,1.60
2018-12-23T06:56:51.199Z,1.80
2018-12-23T06:59:19.624Z,2.80
2018-12-23T07:01:48.048Z,1.70
2018-12-23T07:04:16.499Z,1.77
2018-12-23T07:06:44.902Z,1.70
2018-12-23T07:09:13.351Z,1.70
2018-12-23T07:11:41.795Z,1.73
2018-12-23T07:14:10.227Z,1.77
2018-12-23T07:16:38.686Z,1.70
2018-12-23T07:19:07.187Z,1.50
2018-12-23T07:21:35.852Z,1.90
2018-12-23T07:24:04.290Z,1.97
2018-12-23T07:26:32.753Z,1.80
2018-12-23T07:29:01.154Z,1.83
2018-12-23T07:31:29.935Z,1.87
2018-12-23T07:33:58.384Z,1.83
2018-12-23T07:36:27.538Z,2.17
2018-12-23T07:38:55.958Z,1.93
2018-12-23T07:41:25.017Z,1.63
2018-12-23T07:43:53.455Z,2.00
2018-12-23T07:46:21.873Z,1.87
2018-12-23T07:48:50.325Z,2.17
2018-12-23T07:51:18.736Z,2.07
2018-12-23T07:53:47.184Z,1.60
2018-12-23T07:56:15.622Z,1.80
2018-12-23T07:58:44.085Z,1.70
2018-12-23T08:01:12.493Z,2.70
2018-12-23T08:03:40.910Z,1.90
2018-12-23T08:06:09.361Z,1.97
2018-12-23T08:08:37.812Z,1.87
2018-12-23T08:11:06.503Z,1.77
2018-12-23T08:13:36.643Z,1.73
2018-12-23T08:16:07.160Z,1.80
2018-12-23T08:18:35.584Z,1.77
2018-12-23T08:21:03.938Z,1.97
2018-12-23T08:23:32.380Z,2.23
2018-12-23T08:26:00.784Z,1.60
2018-12-23T08:28:29.265Z,2.27
2018-12-23T08:30:57.658Z,2.03
2018-12-23T08:33:26.184Z,1.37
2018-12-23T08:35:54.584Z,1.47
2018-12-23T08:38:23.165Z,1.60
2018-12-23T08:40:51.848Z,3.37
2018-12-23T08:43:20.281Z,2.10
2018-12-23T08:45:49.019Z,4.50
2018-12-23T08:48:17.474Z,1.63
2018-12-23T08:50:45.928Z,1.63
2018-12-23T08:53:16.186Z,1.77
2018-12-23T08:55:44.892Z,2.10
2018-12-23T08:58:13.289Z,1.70
2018-12-23T09:00:42.049Z,1.80
2018-12-23T09:03:18.687Z,1.30
2018-12-23T09:05:40.934Z,1.87
2018-12-23T09:08:09.378Z,1.47
2018-12-23T09:10:37.802Z,1.40
2018-12-23T09:13:06.276Z,1.37
2018-12-23T09:15:34.724Z,1.80
2018-12-23T09:18:03.153Z,1.30
2018-12-23T09:20:31.624Z,1.90
2018-12-23T09:23:00.057Z,1.27
2018-12-23T09:25:28.482Z,2.27
2018-12-23T09:27:56.888Z,1.93
2018-12-23T09:30:25.365Z,1.67
2018-12-23T09:32:54.153Z,1.27
2018-12-23T09:35:22.710Z,1.30
2018-12-23T09:37:51.421Z,3.53
2018-12-23T09:40:19.980Z,2.03
2018-12-23T09:42:49.006Z,1.37
2018-12-23T09:45:17.419Z,5.20
2018-12-23T09:47:45.740Z,3.60
2018-12-23T09:50:14.144Z,3.20
2018-12-23T09:52:42.557Z,2.80
2018-12-23T09:55:10.988Z,2.90
2018-12-23T09:57:39.475Z,2.13
2018-12-23T10:00:09.065Z,2.13
2018-12-23T10:02:37.553Z,1.50
2018-12-23T10:05:06.590Z,3.20
2018-12-23T10:07:35.012Z,2.13
2018-12-23T10:10:05.327Z,1.77
2018-12-23T10:12:33.793Z,2.03
2018-12-23T10:15:02.936Z,1.90
2018-12-23T10:17:31.332Z,3.40
2018-12-23T10:19:59.753Z,2.07
2018-12-23T10:22:28.160Z,4.30
2018-12-23T10:24:56.584Z,1.50
2018-12-23T10:27:25.107Z,1.47
2018-12-23T10:29:53.820Z,4.10
2018-12-23T10:32:22.306Z,1.97
2018-12-23T10:34:50.755Z,1.77
2018-12-23T10:37:19.164Z,2.20
2018-12-23T10:39:47.568Z,1.40
2018-12-23T10:42:16.120Z,1.63
2018-12-23T10:44:44.558Z,1.67
2018-12-23T10:47:12.984Z,1.63
2018-12-23T10:49:41.403Z,1.93
2018-12-23T10:52:09.818Z,2.03
2018-12-23T10:54:38.213Z,1.97
2018-12-23T10:57:07.004Z,1.73
2018-12-23T10:59:35.417Z,1.73
2018-12-23T11:02:04.021Z,2.00
2018-12-23T11:04:32.478Z,14.87
2018-12-23T11:07:00.890Z,19.90
2018-12-23T11:09:29.307Z,17.17
2018-12-23T11:11:57.964Z,17.63
2018-12-23T11:14:26.437Z,20.87
2018-12-23T11:16:54.873Z,15.30
2018-12-23T11:19:23.316Z,18.00
2018-12-23T11:21:53.698Z,13.30
2018-12-23T11:24:22.211Z,17.03
2018-12-23T11:26:50.764Z,15.60
2018-12-23T11:29:19.169Z,16.30
2018-12-23T11:31:47.887Z,18.07
2018-12-23T11:34:16.631Z,13.43
2018-12-23T11:36:45.468Z,12.43
2018-12-23T11:39:13.868Z,11.00
2018-12-23T11:41:42.316Z,13.27
2018-12-23T11:44:11.041Z,8.07
2018-12-23T11:46:39.497Z,14.20
2018-12-23T11:49:07.803Z,9.53
2018-12-23T11:51:36.218Z,8.20
2018-12-23T11:54:04.518Z,12.70
2018-12-23T11:56:32.933Z,8.43
2018-12-23T11:59:01.343Z,9.47
2018-12-23T12:01:30.167Z,11.10
2018-12-23T12:03:58.597Z,12.40
2018-12-23T12:06:27.103Z,7.30
2018-12-23T12:08:55.520Z,10.80
2018-12-23T12:11:24.068Z,9.03
2018-12-23T12:13:52.486Z,9.70
2018-12-23T12:16:20.884Z,5.87
2018-12-23T12:18:49.351Z,6.03
2018-12-23T12:21:17.786Z,8.23
2018-12-23T12:23:47.106Z,9.20
2018-12-23T12:26:15.794Z,8.77
2018-12-23T12:28:44.214Z,4.90
2018-12-23T12:31:12.641Z,9.00
2018-12-23T12:33:41.093Z,7.30
2018-12-23T12:36:09.594Z,5.90
2018-12-23T12:38:38.023Z,8.90
2018-12-23T12:41:06.458Z,4.40
2018-12-23T12:43:34.920Z,4.13
2018-12-23T12:46:03.314Z,5.00
2018-12-23T12:48:32.017Z,4.33
2018-12-23T12:51:00.688Z,5.03
2018-12-23T12:53:29.139Z,5.43
2018-12-23T12:55:57.537Z,6.50
2018-12-23T12:58:26.257Z,7.13
2018-12-23T13:00:54.673Z,4.83
2018-12-23T13:03:23.142Z,4.17
2018-12-23T13:05:51.907Z,3.30
2018-12-23T13:08:20.345Z,4.03
2018-12-23T13:10:48.763Z,3.43
2018-12-23T13:13:17.386Z,3.30
2018-12-23T13:15:45.880Z,3.17
2018-12-23T13:18:14.290Z,3.40
2018-12-23T13:20:42.994Z,3.13
2018-12-23T13:23:11.411Z,4.63
2018-12-23T13:25:39.825Z,4.47
2018-12-23T13:28:08.431Z,2.80
2018-12-23T13:30:37.313Z,2.40
2018-12-23T13:33:05.742Z,3.57
2018-12-23T13:35:34.202Z,2.73
2018-12-23T13:38:02.661Z,2.03
2018-12-23T13:40:38.902Z,1.70
2018-12-23T13:43:14.936Z,2.00
2018-12-23T13:45:59.976Z,4.00
2018-12-23T13:48:46.065Z,3.73
2018-12-23T13:51:22.435Z,3.43
2018-12-23T13:53:59.362Z,2.00
2018-12-23T13:56:34.492Z,2.57
2018-12-23T14:02:53.937Z,3.63
2018-12-23T14:05:36.337Z,1.97
2018-12-23T14:08:18.924Z,2.80
2018-12-23T14:11:01.140Z,4.43
2018-12-23T14:20:20.248Z,4.60
2018-12-23T14:23:02.333Z,2.03
2018-12-23T14:25:44.819Z,2.37
2018-12-23T14:28:27.010Z,2.23
2018-12-23T14:31:09.450Z,2.20
2018-12-23T14:33:51.840Z,2.13
2018-12-23T14:36:34.398Z,3.63
2018-12-23T14:42:56.715Z,2.70
2018-12-23T14:45:38.844Z,3.70
2018-12-23T14:48:20.499Z,5.90
2018-12-23T14:51:02.420Z,2.03
2018-12-23T14:53:45.269Z,3.40
2018-12-23T14:56:28.983Z,2.87
2018-12-23T14:59:11.753Z,3.80
2018-12-23T15:01:54.299Z,3.03
2018-12-23T15:04:34.755Z,2.37
2018-12-23T15:07:23.840Z,4.70
2018-12-23T15:10:12.919Z,4.97
2018-12-23T15:16:34.588Z,2.80
2018-12-23T15:19:16.376Z,3.50
2018-12-23T15:21:59.082Z,2.10
2018-12-23T15:24:40.732Z,9.60
2018-12-23T15:27:22.569Z,2.60
2018-12-23T15:30:04.879Z,3.90
2018-12-23T15:32:47.132Z,2.90
2018-12-23T15:35:29.048Z,2.73
2018-12-23T15:38:09.097Z,2.10
2018-12-23T15:40:58.263Z,2.80
2018-12-23T15:43:48.004Z,3.70
2018-12-23T15:46:37.139Z,3.03
2018-12-23T15:49:26.227Z,2.03
2018-12-23T15:52:58.589Z,2.10
2018-12-23T15:55:46.535Z,2.40
2018-12-23T15:58:35.660Z,2.57
2018-12-23T16:01:44.538Z,2.03
2018-12-23T16:04:51.668Z,4.30
2018-12-23T16:07:41.988Z,3.57
2018-12-23T16:10:31.415Z,2.43
2018-12-23T16:13:20.757Z,4.27
2018-12-23T16:16:09.897Z,3.07
2018-12-23T16:18:59.503Z,3.23
2018-12-23T16:24:37.939Z,2.77
2018-12-23T16:27:27.172Z,5.43
2018-12-23T16:30:16.260Z,2.47
2018-12-23T16:33:05.420Z,4.23
2018-12-23T16:35:54.668Z,2.30
2018-12-23T16:41:33.161Z,1.97
2018-12-23T16:44:22.236Z,3.23
2018-12-23T16:47:11.361Z,3.30
2018-12-23T16:52:52.258Z,4.40
2018-12-23T16:59:45.996Z,2.80
2018-12-23T17:02:35.057Z,2.50
2018-12-23T17:08:54.145Z,6.20
2018-12-23T17:15:15.471Z,2.20
2018-12-23T17:17:57.254Z,2.93
2018-12-23T17:20:39.451Z,3.13
2018-12-23T17:23:21.796Z,4.27
2018-12-23T17:26:03.323Z,2.60
2018-12-23T17:28:45.683Z,3.00
2018-12-23T17:31:27.512Z,2.60
2018-12-23T17:34:09.928Z,3.77
2018-12-23T17:36:52.328Z,2.80
2018-12-23T17:43:13.060Z,2.73
2018-12-23T17:49:14.400Z,3.33
2018-12-23T17:51:56.405Z,2.70
2018-12-23T17:54:38.757Z,3.13
2018-12-23T17:57:20.858Z,4.67
2018-12-23T18:00:02.583Z,4.00
2018-12-23T18:02:42.676Z,2.90
2018-12-23T18:05:12.575Z,3.10
2018-12-23T18:08:01.668Z,4.60
2018-12-23T18:10:50.912Z,2.53
2018-12-23T18:13:40.059Z,3.67
2018-12-23T18:16:48.648Z,3.27
2018-12-23T18:19:37.785Z,3.50
2018-12-23T18:22:27.265Z,3.50
2018-12-23T18:25:16.636Z,4.27
2018-12-23T18:28:05.748Z,2.53
2018-12-23T18:31:26.114Z,3.43
2018-12-23T18:34:24.887Z,2.70
2018-12-23T18:37:14.039Z,4.30
2018-12-23T18:40:03.216Z,2.47
2018-12-23T18:42:52.385Z,2.37
2018-12-23T18:45:41.543Z,2.83
2018-12-23T18:48:30.668Z,2.80
2018-12-23T18:51:19.841Z,3.80
2018-12-23T18:54:08.905Z,2.90
2018-12-23T18:56:58.821Z,3.93
2018-12-23T18:59:40.701Z,3.23
2018-12-23T19:02:22.991Z,2.87
2018-12-23T19:05:04.735Z,2.97
2018-12-23T19:14:37.479Z,2.30
2018-12-23T19:17:19.526Z,3.30
2018-12-23T19:23:27.132Z,4.00
2018-12-23T19:26:09.460Z,3.07
2018-12-23T19:28:51.318Z,3.40
2018-12-23T19:31:33.710Z,5.07
2018-12-23T19:34:15.693Z,3.97
2018-12-23T19:36:57.512Z,3.10
2018-12-23T19:39:39.177Z,2.57
2018-12-23T19:42:21.383Z,4.23
2018-12-23T19:45:04.011Z,3.33
2018-12-23T19:47:45.660Z,2.90
2018-12-23T19:50:27.524Z,2.80
2018-12-23T19:53:09.980Z,2.40
2018-12-23T19:55:52.236Z,2.70
2018-12-23T19:58:34.076Z,3.47
2018-12-23T20:01:16.465Z,2.90
2018-12-23T20:03:58.348Z,3.53
2018-12-23T20:06:39.992Z,2.87
2018-12-23T20:09:22.157Z,2.50
2018-12-23T20:12:04.070Z,3.33
2018-12-23T20:14:46.262Z,4.30
2018-12-23T20:17:27.924Z,5.50
2018-12-23T20:20:10.144Z,5.70
2018-12-23T20:22:52.580Z,3.30
2018-12-23T20:25:34.564Z,4.70
2018-12-23T20:28:16.855Z,2.93
2018-12-23T20:30:58.817Z,3.40
2018-12-23T20:33:40.705Z,3.07
2018-12-23T20:36:22.404Z,6.50
2018-12-23T20:39:05.331Z,3.13
2018-12-23T20:41:46.960Z,6.17
2018-12-23T20:44:28.629Z,3.60
2018-12-23T20:47:10.968Z,3.20
2018-12-23T20:49:52.516Z,4.07
2018-12-23T20:52:34.850Z,3.03
2018-12-23T20:58:43.564Z,2.87
2018-12-23T21:01:53.385Z,4.93
2018-12-23T21:05:03.207Z,5.00
2018-12-23T21:08:11.589Z,5.13
2018-12-23T21:11:20.037Z,2.63
2018-12-23T21:14:28.471Z,3.40
2018-12-23T21:17:36.973Z,2.60
2018-12-23T21:20:45.629Z,4.10
2018-12-23T21:23:55.473Z,3.73
2018-12-23T21:27:03.851Z,13.53
2018-12-23T21:30:13.704Z,17.30
2018-12-23T21:33:22.088Z,9.40
2018-12-23T21:36:31.923Z,8.67
2018-12-23T21:39:40.642Z,9.40
2018-12-23T21:42:49.056Z,11.43
2018-12-23T21:49:29.204Z,26.23
2018-12-23T21:52:11.530Z,24.47
2018-12-23T21:54:53.769Z,24.50
2018-12-23T21:57:35.515Z,26.00
2018-12-23T22:00:17.925Z,18.00
2018-12-23T22:03:00.345Z,20.73
2018-12-23T22:05:42.758Z,20.50
2018-12-23T22:08:24.945Z,15.10
2018-12-23T22:11:07.628Z,14.60
2018-12-23T22:13:49.592Z,14.93
2018-12-23T22:16:31.748Z,13.00
2018-12-23T22:19:13.243Z,12.50
2018-12-23T22:21:54.931Z,15.37
2018-12-23T22:24:36.552Z,12.30
2018-12-23T22:27:18.698Z,10.03
2018-12-23T22:30:00.761Z,11.80
2018-12-23T22:32:43.180Z,13.23
2018-12-23T22:35:24.920Z,12.23
2018-12-23T22:38:06.616Z,13.03
2018-12-23T22:40:48.921Z,7.40
2018-12-23T22:43:30.908Z,7.87
2018-12-23T22:46:13.129Z,7.40
2018-12-23T22:48:55.231Z,7.40
2018-12-23T22:51:37.157Z,8.07
2018-12-23T22:54:17.225Z,5.93
2018-12-23T22:57:06.352Z,5.60
2018-12-23T22:59:55.752Z,7.30
2018-12-23T23:02:45.263Z,5.37
2018-12-23T23:05:54.155Z,5.87
2018-12-23T23:08:43.346Z,6.70
2018-12-23T23:11:32.477Z,5.83
2018-12-23T23:14:21.637Z,6.80
2018-12-23T23:17:10.735Z,6.67
2018-12-23T23:19:59.865Z,15.40
2018-12-23T23:22:48.924Z,10.07
2018-12-23T23:25:38.016Z,6.17
2018-12-23T23:28:27.111Z,7.60
2018-12-23T23:31:16.219Z,8.57
2018-12-23T23:34:05.614Z,12.13
2018-12-23T23:36:54.690Z,7.60
2018-12-23T23:39:44.452Z,6.27
2018-12-23T23:42:33.817Z,5.63
2018-12-23T23:45:22.908Z,5.23
2018-12-23T23:48:12.069Z,5.60
2018-12-23T23:51:01.129Z,5.20
2018-12-23T23:53:50.581Z,4.30
2018-12-23T23:56:39.741Z,2.93
2018-12-23T23:59:28.847Z,3.37
